createdAt,value
2023-05-03T00:00:17.131Z,99.90
2023-05-03T00:02:44.830Z,99.90
2023-05-03T00:05:15.040Z,99.90
2023-05-03T00:07:43.658Z,99.90
2023-05-03T00:10:13.098Z,99.90
2023-05-03T00:12:41.129Z,99.90
2023-05-03T00:15:09.075Z,99.90
2023-05-03T00:17:39.296Z,99.90
2023-05-03T00:20:09.880Z,99.90
2023-05-03T00:22:36.819Z,99.90
2023-05-03T00:25:04.619Z,99.90
2023-05-03T00:27:31.343Z,99.90
2023-05-03T00:29:58.011Z,99.90
2023-05-03T00:32:24.838Z,99.90
2023-05-03T00:34:58.227Z,99.90
2023-05-03T00:37:25.700Z,99.90
2023-05-03T00:39:52.628Z,99.90
2023-05-03T00:42:21.457Z,99.90
2023-05-03T00:44:50.432Z,99.90
2023-05-03T00:47:17.677Z,99.90
2023-05-03T00:49:44.784Z,99.90
2023-05-03T00:52:11.608Z,99.90
2023-05-03T00:54:38.589Z,99.90
2023-05-03T00:57:06.211Z,99.90
2023-05-03T00:59:34.511Z,99.90
2023-05-03T01:02:01.891Z,99.90
2023-05-03T01:04:29.478Z,99.90
2023-05-03T01:07:30.506Z,99.90
2023-05-03T01:09:57.079Z,99.90
2023-05-03T01:12:48.471Z,99.90
2023-05-03T01:15:27.249Z,99.90
2023-05-03T01:18:12.604Z,99.90
2023-05-03T01:20:44.067Z,99.90
2023-05-03T01:23:33.116Z,99.90
2023-05-03T01:26:01.073Z,99.90
2023-05-03T01:28:27.777Z,99.90
2023-05-03T01:30:57.355Z,99.90
2023-05-03T01:33:37.011Z,99.90
2023-05-03T01:36:16.157Z,99.90
2023-05-03T01:38:43.356Z,99.90
2023-05-03T01:41:14.063Z,99.90
2023-05-03T01:43:41.601Z,99.90
2023-05-03T01:46:08.674Z,99.90
2023-05-03T01:48:35.582Z,99.90
2023-05-03T01:51:03.279Z,99.90
2023-05-03T01:53:30.006Z,99.90
2023-05-03T01:55:56.740Z,99.90
2023-05-03T01:58:23.460Z,99.90
2023-05-03T02:00:50.402Z,99.90
2023-05-03T02:03:17.248Z,99.90
2023-05-03T02:05:50.025Z,99.90
2023-05-03T02:08:16.722Z,99.90
2023-05-03T02:10:46.450Z,99.90
2023-05-03T02:13:15.184Z,99.90
2023-05-03T02:15:41.938Z,99.90
2023-05-03T02:18:12.650Z,99.90
2023-05-03T02:20:39.550Z,99.90
2023-05-03T02:23:06.318Z,99.90
2023-05-03T02:25:33.009Z,99.90
2023-05-03T02:27:59.725Z,99.90
2023-05-03T02:30:26.553Z,99.90
2023-05-03T02:32:53.315Z,99.90
2023-05-03T02:35:21.014Z,99.90
2023-05-03T02:37:47.996Z,99.90
2023-05-03T02:40:15.859Z,99.90
2023-05-03T02:42:44.871Z,99.90
2023-05-03T02:45:14.171Z,99.90
2023-05-03T02:47:41.042Z,99.90
2023-05-03T02:50:08.424Z,99.90
2023-05-03T02:52:38.743Z,99.90
2023-05-03T02:55:06.403Z,99.90
2023-05-03T02:57:33.356Z,99.90
2023-05-03T03:00:00.555Z,99.90
2023-05-03T03:02:27.651Z,99.90
2023-05-03T03:04:54.693Z,99.90
2023-05-03T03:07:22.706Z,99.90
2023-05-03T03:09:54.262Z,99.90
2023-05-03T03:12:21.566Z,99.90
2023-05-03T03:14:48.428Z,99.90
2023-05-03T03:17:15.196Z,99.90
2023-05-03T03:19:41.892Z,99.90
2023-05-03T03:22:08.610Z,99.90
2023-05-03T03:24:36.439Z,99.90
2023-05-03T03:27:03.988Z,99.90
2023-05-03T03:29:32.912Z,99.90
2023-05-03T03:32:01.487Z,99.90
2023-05-03T03:34:28.267Z,99.90
2023-05-03T03:36:55.286Z,99.90
2023-05-03T03:39:22.055Z,99.90
2023-05-03T03:41:48.852Z,99.90
2023-05-03T03:44:15.543Z,99.90
2023-05-03T03:46:42.329Z,99.90
2023-05-03T03:49:09.170Z,99.90
2023-05-03T03:51:36.366Z,99.90
2023-05-03T03:54:03.317Z,99.90
2023-05-03T03:56:34.877Z,99.90
2023-05-03T03:59:01.554Z,99.90
2023-05-03T04:01:28.280Z,99.90
2023-05-03T04:03:56.327Z,99.90
2023-05-03T04:06:23.295Z,99.90
2023-05-03T04:08:50.133Z,99.90
2023-05-03T04:11:17.422Z,99.90
2023-05-03T04:13:51.916Z,99.90
2023-05-03T04:16:19.145Z,99.90
2023-05-03T04:18:46.463Z,99.90
2023-05-03T04:21:13.734Z,99.90
2023-05-03T04:23:41.792Z,99.90
2023-05-03T04:26:23.475Z,99.90
2023-05-03T04:28:57.407Z,99.90
2023-05-03T04:31:24.278Z,99.90
2023-05-03T04:33:53.528Z,99.90
2023-05-03T04:36:25.395Z,99.90
2023-05-03T04:38:52.891Z,99.90
2023-05-03T04:41:19.905Z,99.90
2023-05-03T04:43:47.827Z,99.90
2023-05-03T04:46:14.708Z,99.90
2023-05-03T04:48:41.419Z,99.90
2023-05-03T04:51:08.311Z,99.90
2023-05-03T04:53:35.182Z,99.90
2023-05-03T04:56:07.913Z,99.90
2023-05-03T04:58:37.816Z,99.90
2023-05-03T05:01:05.700Z,99.90
2023-05-03T05:03:32.772Z,99.90
2023-05-03T05:06:03.282Z,99.90
2023-05-03T05:08:31.590Z,99.90
2023-05-03T05:10:58.451Z,99.90
2023-05-03T05:13:30.314Z,99.90
2023-05-03T05:15:57.566Z,99.90
2023-05-03T05:18:24.286Z,99.90
2023-05-03T05:20:52.500Z,99.90
2023-05-03T05:23:20.300Z,99.90
2023-05-03T05:25:48.215Z,99.90
2023-05-03T05:28:14.995Z,99.90
2023-05-03T05:30:41.970Z,99.90
2023-05-03T05:33:08.795Z,99.90
2023-05-03T05:35:35.743Z,99.90
2023-05-03T05:38:04.160Z,99.90
2023-05-03T05:40:31.497Z,99.90
2023-05-03T05:43:00.409Z,99.90
2023-05-03T05:45:28.763Z,99.90
2023-05-03T05:47:57.070Z,99.90
2023-05-03T05:50:23.831Z,99.90
2023-05-03T05:52:56.141Z,99.90
2023-05-03T05:55:26.508Z,99.90
2023-05-03T05:57:54.418Z,99.90
2023-05-03T06:00:26.283Z,99.90
2023-05-03T06:02:53.125Z,99.90
2023-05-03T06:05:27.077Z,99.90
2023-05-03T06:07:54.014Z,99.90
2023-05-03T06:10:21.250Z,99.90
2023-05-03T06:12:51.311Z,99.90
2023-05-03T06:15:22.813Z,99.90
2023-05-03T06:17:49.766Z,99.90
2023-05-03T06:20:18.511Z,99.90
2023-05-03T06:22:46.080Z,99.90
2023-05-03T06:25:16.157Z,99.90
2023-05-03T06:27:45.598Z,99.90
2023-05-03T06:30:12.951Z,99.90
2023-05-03T06:32:41.835Z,99.90
2023-05-03T06:35:09.396Z,99.90
2023-05-03T06:37:37.882Z,99.90
2023-05-03T06:40:06.932Z,99.90
2023-05-03T06:42:33.586Z,99.90
2023-05-03T06:45:08.281Z,99.90
2023-05-03T06:47:37.844Z,99.90
2023-05-03T06:50:05.261Z,99.90
2023-05-03T06:52:32.598Z,99.90
2023-05-03T06:54:59.356Z,99.90
2023-05-03T06:57:28.143Z,99.90
2023-05-03T06:59:55.634Z,99.90
2023-05-03T07:02:23.152Z,99.90
2023-05-03T07:04:50.517Z,99.90
2023-05-03T07:07:17.202Z,99.90
2023-05-03T07:09:44.214Z,99.90
2023-05-03T07:12:11.496Z,99.90
2023-05-03T07:14:39.635Z,99.90
2023-05-03T07:17:06.419Z,99.90
2023-05-03T07:19:33.176Z,99.90
2023-05-03T07:21:59.860Z,99.90
2023-05-03T07:24:26.533Z,99.90
2023-05-03T07:26:55.473Z,99.90
2023-05-03T07:29:22.238Z,99.90
2023-05-03T07:31:50.833Z,99.90
2023-05-03T07:34:18.773Z,99.90
2023-05-03T07:36:45.480Z,99.90
2023-05-03T07:39:12.173Z,99.90
2023-05-03T07:41:38.902Z,99.90
2023-05-03T07:44:05.546Z,99.90
2023-05-03T07:46:34.996Z,99.90
2023-05-03T07:49:04.062Z,99.90
2023-05-03T07:51:35.325Z,99.90
2023-05-03T07:54:02.144Z,99.90
2023-05-03T07:56:31.978Z,99.90
2023-05-03T07:59:08.358Z,99.90
2023-05-03T08:01:35.724Z,98.80
2023-05-03T08:04:02.458Z,99.90
2023-05-03T08:06:29.548Z,99.90
2023-05-03T08:08:56.328Z,99.90
2023-05-03T08:11:23.018Z,96.10
2023-05-03T08:13:49.732Z,99.10
2023-05-03T08:16:16.542Z,92.60
2023-05-03T08:18:43.537Z,96.30
2023-05-03T08:21:12.014Z,94.90
2023-05-03T08:23:38.891Z,93.70
2023-05-03T08:26:07.763Z,94.50
2023-05-03T08:28:34.622Z,93.20
2023-05-03T08:31:04.700Z,93.10
2023-05-03T08:33:32.471Z,92.00
2023-05-03T08:35:59.258Z,91.70
2023-05-03T08:38:26.466Z,90.60
2023-05-03T08:40:57.945Z,86.50
2023-05-03T08:43:28.036Z,87.20
2023-05-03T08:45:57.434Z,86.50
2023-05-03T08:48:24.261Z,87.10
2023-05-03T08:50:52.006Z,88.70
2023-05-03T08:53:18.693Z,78.40
2023-05-03T08:55:45.728Z,83.20
2023-05-03T08:58:13.429Z,84.50
2023-05-03T09:00:44.752Z,80.00
2023-05-03T09:03:12.177Z,81.30
2023-05-03T09:05:40.526Z,73.30
2023-05-03T09:08:09.687Z,74.00
2023-05-03T09:10:41.645Z,74.30
2023-05-03T09:13:09.612Z,69.90
2023-05-03T09:15:36.526Z,68.80
2023-05-03T09:18:21.598Z,72.90
2023-05-03T09:20:52.649Z,65.80
2023-05-03T09:23:31.002Z,69.40
2023-05-03T09:25:59.722Z,64.70
2023-05-03T09:28:27.074Z,60.60
2023-05-03T09:31:07.308Z,62.70
2023-05-03T09:33:36.540Z,58.40
2023-05-03T09:36:05.336Z,58.80
2023-05-03T09:38:34.706Z,59.30
2023-05-03T09:41:01.490Z,60.60
2023-05-03T09:43:28.432Z,61.30
2023-05-03T09:46:09.186Z,60.90
2023-05-03T09:48:40.342Z,56.80
2023-05-03T09:51:07.952Z,57.40
2023-05-03T09:53:36.593Z,57.30
2023-05-03T09:56:05.975Z,55.90
2023-05-03T09:58:37.576Z,56.50
2023-05-03T10:01:04.439Z,57.80
2023-05-03T10:03:45.116Z,53.30
2023-05-03T10:06:21.691Z,53.40
2023-05-03T10:09:05.897Z,54.50
2023-05-03T10:11:36.291Z,54.20
2023-05-03T10:14:06.573Z,52.90
2023-05-03T10:16:38.557Z,52.20
2023-05-03T10:19:37.340Z,52.80
2023-05-03T10:22:08.206Z,51.30
2023-05-03T10:24:36.866Z,51.80
2023-05-03T10:27:08.313Z,50.40
2023-05-03T10:29:34.980Z,50.40
2023-05-03T10:32:05.910Z,49.00
2023-05-03T10:34:33.868Z,50.90
2023-05-03T10:37:03.315Z,50.10
2023-05-03T10:39:31.273Z,49.40
2023-05-03T10:41:59.867Z,49.10
2023-05-03T10:44:38.780Z,49.70
2023-05-03T10:47:22.024Z,46.20
2023-05-03T10:50:08.645Z,45.20
2023-05-03T10:52:35.311Z,46.30
2023-05-03T10:55:02.975Z,46.90
2023-05-03T10:57:35.157Z,46.20
2023-05-03T11:00:05.700Z,44.70
2023-05-03T11:02:37.471Z,46.90
2023-05-03T11:05:12.143Z,46.10
2023-05-03T11:07:38.939Z,44.40
2023-05-03T11:10:18.962Z,44.50
2023-05-03T11:12:46.087Z,44.50
2023-05-03T11:15:12.879Z,43.80
2023-05-03T11:17:39.603Z,44.60
2023-05-03T11:20:10.017Z,43.90
2023-05-03T11:22:40.193Z,42.30
2023-05-03T11:25:07.685Z,42.00
2023-05-03T11:27:34.379Z,41.90
2023-05-03T11:30:01.198Z,44.30
2023-05-03T11:32:29.796Z,44.00
2023-05-03T11:34:59.106Z,43.10
2023-05-03T11:37:26.915Z,42.00
2023-05-03T11:39:53.650Z,44.10
2023-05-03T11:42:20.412Z,42.40
2023-05-03T11:44:47.287Z,41.20
2023-05-03T11:47:14.105Z,43.50
2023-05-03T11:49:53.839Z,42.50
2023-05-03T11:52:22.665Z,40.90
2023-05-03T11:54:49.515Z,41.40
2023-05-03T11:57:16.475Z,40.60
2023-05-03T11:59:44.751Z,40.00
2023-05-03T12:02:15.719Z,40.10
2023-05-03T12:04:45.356Z,39.60
2023-05-03T12:07:14.626Z,39.70
2023-05-03T12:09:45.520Z,41.00
2023-05-03T12:12:26.436Z,39.90
2023-05-03T12:15:04.331Z,39.90
2023-05-03T12:17:43.562Z,38.40
2023-05-03T12:22:51.766Z,37.40
2023-05-03T12:25:20.914Z,38.10
2023-05-03T12:27:56.014Z,39.30
2023-05-03T12:30:35.455Z,37.70
2023-05-03T12:33:04.893Z,38.30
2023-05-03T12:35:34.236Z,39.00
2023-05-03T12:38:03.453Z,38.90
2023-05-03T12:40:33.295Z,38.70
2023-05-03T12:43:03.348Z,35.50
2023-05-03T12:45:34.416Z,37.60
2023-05-03T12:48:02.754Z,35.70
2023-05-03T12:50:31.916Z,36.10
2023-05-03T12:53:02.292Z,36.00
2023-05-03T12:55:34.632Z,35.50
2023-05-03T13:00:35.814Z,34.60
2023-05-03T13:05:35.888Z,35.20
2023-05-03T13:10:34.286Z,34.90
2023-05-03T13:13:01.690Z,35.80
2023-05-03T13:15:28.711Z,35.60
2023-05-03T13:17:56.120Z,35.50
2023-05-03T13:20:22.904Z,33.70
2023-05-03T13:22:49.541Z,36.30
2023-05-03T13:25:16.389Z,35.90
2023-05-03T13:27:44.017Z,34.80
2023-05-03T13:30:11.167Z,35.50
2023-05-03T13:32:38.103Z,35.60
2023-05-03T13:35:05.801Z,36.50
2023-05-03T13:37:32.948Z,34.60
2023-05-03T13:39:59.745Z,34.70
2023-05-03T13:42:26.678Z,35.30
2023-05-03T13:44:53.535Z,33.10
2023-05-03T13:47:20.259Z,35.40
2023-05-03T13:49:47.352Z,34.10
2023-05-03T13:52:14.693Z,35.80
2023-05-03T13:54:42.405Z,35.50
2023-05-03T13:57:09.140Z,35.80
2023-05-03T13:59:38.954Z,36.60
2023-05-03T14:02:06.337Z,37.60
2023-05-03T14:04:33.152Z,35.90
2023-05-03T14:07:02.886Z,36.60
2023-05-03T14:09:30.719Z,36.10
2023-05-03T14:11:57.877Z,37.00
2023-05-03T14:14:27.234Z,36.60
2023-05-03T14:16:54.082Z,36.20
2023-05-03T14:19:21.109Z,35.90
2023-05-03T14:21:49.758Z,35.30
2023-05-03T14:24:16.461Z,34.80
2023-05-03T14:26:43.236Z,34.50
2023-05-03T14:29:09.956Z,35.00
2023-05-03T14:31:39.175Z,34.90
2023-05-03T14:34:05.978Z,34.90
2023-05-03T14:36:36.105Z,34.30
2023-05-03T14:39:04.201Z,34.60
2023-05-03T14:41:33.145Z,34.70
2023-05-03T14:44:00.001Z,34.60
2023-05-03T14:46:26.928Z,33.00
2023-05-03T14:48:53.710Z,33.90
2023-05-03T14:51:20.572Z,33.60
2023-05-03T14:53:47.249Z,34.80
2023-05-03T14:56:13.966Z,34.90
2023-05-03T14:58:40.651Z,34.10
2023-05-03T15:01:07.363Z,34.40
2023-05-03T15:03:34.122Z,32.70
2023-05-03T15:06:00.921Z,33.60
2023-05-03T15:08:27.796Z,31.80
2023-05-03T15:10:54.427Z,33.00
2023-05-03T15:13:21.326Z,32.40
2023-05-03T15:15:51.577Z,31.40
2023-05-03T15:18:20.183Z,32.90
2023-05-03T15:20:47.353Z,33.20
2023-05-03T15:23:16.700Z,32.60
2023-05-03T15:25:43.476Z,32.00
2023-05-03T15:28:10.172Z,32.20
2023-05-03T15:30:36.880Z,32.20
2023-05-03T15:33:04.732Z,32.50
2023-05-03T15:35:41.276Z,32.50
2023-05-03T15:38:08.587Z,33.80
2023-05-03T15:40:35.310Z,33.70
2023-05-03T15:43:02.034Z,33.80
2023-05-03T15:45:28.892Z,33.80
2023-05-03T15:47:58.816Z,35.00
2023-05-03T15:50:25.595Z,36.00
2023-05-03T15:52:52.307Z,36.10
2023-05-03T15:55:20.060Z,36.50
2023-05-03T15:57:46.833Z,37.50
2023-05-03T16:00:16.473Z,38.70
2023-05-03T16:02:43.277Z,38.30
2023-05-03T16:05:11.159Z,37.80
2023-05-03T16:07:37.867Z,38.20
2023-05-03T16:10:05.325Z,38.10
2023-05-03T16:12:32.222Z,38.80
2023-05-03T16:14:58.974Z,39.30
2023-05-03T16:17:25.786Z,39.90
2023-05-03T16:19:52.612Z,39.10
2023-05-03T16:22:19.278Z,39.90
2023-05-03T16:24:46.861Z,39.40
2023-05-03T16:27:13.581Z,40.00
2023-05-03T16:29:40.318Z,39.70
2023-05-03T16:32:09.709Z,40.60
2023-05-03T16:34:37.700Z,40.50
2023-05-03T16:37:04.847Z,39.40
2023-05-03T16:39:32.304Z,40.00
2023-05-03T16:41:58.969Z,40.30
2023-05-03T16:44:26.031Z,41.40
2023-05-03T16:46:53.256Z,41.10
2023-05-03T16:49:20.381Z,41.90
2023-05-03T16:51:47.124Z,41.50
2023-05-03T16:54:16.332Z,42.00
2023-05-03T16:56:46.352Z,43.10
2023-05-03T16:59:13.028Z,43.00
2023-05-03T17:01:39.841Z,41.30
2023-05-03T17:04:06.885Z,42.00
2023-05-03T17:06:33.718Z,42.30
2023-05-03T17:09:04.538Z,42.70
2023-05-03T17:11:31.372Z,42.90
2023-05-03T17:13:58.413Z,43.10
2023-05-03T17:16:26.307Z,44.10
2023-05-03T17:18:53.150Z,44.60
2023-05-03T17:21:19.848Z,43.50
2023-05-03T17:23:46.677Z,43.30
2023-05-03T17:26:14.146Z,43.60
2023-05-03T17:28:41.493Z,44.40
2023-05-03T17:31:08.275Z,44.10
2023-05-03T17:33:35.624Z,44.90
2023-05-03T17:36:04.757Z,43.20
2023-05-03T17:38:33.221Z,43.40
2023-05-03T17:41:04.154Z,43.80
2023-05-03T17:43:30.808Z,44.60
2023-05-03T17:45:57.580Z,45.10
2023-05-03T17:48:24.402Z,45.30
2023-05-03T17:50:58.279Z,46.20
2023-05-03T17:53:25.083Z,46.60
2023-05-03T17:55:52.033Z,47.30
2023-05-03T17:58:18.670Z,47.70
2023-05-03T18:00:45.362Z,47.90
2023-05-03T18:03:13.173Z,48.50
2023-05-03T18:05:39.994Z,48.60
2023-05-03T18:08:07.094Z,48.80
2023-05-03T18:10:33.817Z,48.50
2023-05-03T18:13:00.687Z,49.10
2023-05-03T18:15:30.206Z,48.90
2023-05-03T18:17:57.843Z,49.40
2023-05-03T18:20:24.560Z,50.60
2023-05-03T18:22:51.249Z,50.40
2023-05-03T18:25:18.076Z,50.90
2023-05-03T18:27:44.729Z,51.50
2023-05-03T18:30:11.966Z,51.70
2023-05-03T18:32:38.681Z,52.40
2023-05-03T18:35:06.084Z,53.20
2023-05-03T18:37:32.752Z,53.20
2023-05-03T18:39:59.449Z,53.80
2023-05-03T18:42:26.361Z,54.30
2023-05-03T18:44:53.030Z,54.90
2023-05-03T18:47:21.584Z,55.40
2023-05-03T18:49:52.621Z,57.00
2023-05-03T18:52:20.487Z,56.30
2023-05-03T18:54:47.753Z,56.40
2023-05-03T18:57:14.664Z,57.00
2023-05-03T18:59:52.545Z,57.30
2023-05-03T19:02:25.168Z,57.10
2023-05-03T19:04:52.330Z,58.40
2023-05-03T19:07:19.050Z,59.50
2023-05-03T19:09:56.346Z,59.20
2023-05-03T19:12:23.378Z,59.60
2023-05-03T19:14:50.127Z,59.40
2023-05-03T19:17:17.542Z,58.70
2023-05-03T19:19:44.391Z,59.30
2023-05-03T19:22:11.055Z,59.40
2023-05-03T19:24:37.806Z,59.80
2023-05-03T19:27:04.718Z,60.10
2023-05-03T19:29:31.612Z,60.30
2023-05-03T19:31:58.418Z,60.90
2023-05-03T19:34:26.141Z,61.60
2023-05-03T19:36:52.788Z,61.90
2023-05-03T19:39:19.562Z,62.30
2023-05-03T19:41:47.363Z,62.20
2023-05-03T19:44:14.085Z,62.70
2023-05-03T19:46:40.925Z,63.40
2023-05-03T19:49:07.718Z,63.20
2023-05-03T19:51:34.360Z,64.20
2023-05-03T19:54:05.330Z,64.30
2023-05-03T19:56:32.037Z,64.40
2023-05-03T19:58:58.753Z,64.50
2023-05-03T20:01:25.569Z,65.70
2023-05-03T20:03:53.859Z,65.90
2023-05-03T20:06:23.482Z,66.10
2023-05-03T20:08:51.075Z,67.00
2023-05-03T20:11:19.505Z,67.40
2023-05-03T20:13:46.764Z,67.70
2023-05-03T20:16:13.644Z,68.70
2023-05-03T20:18:41.149Z,68.50
2023-05-03T20:21:07.928Z,68.90
2023-05-03T20:23:34.574Z,68.90
2023-05-03T20:26:01.730Z,69.60
2023-05-03T20:28:28.936Z,70.20
2023-05-03T20:30:55.585Z,70.80
2023-05-03T20:33:22.299Z,71.30
2023-05-03T20:35:49.309Z,72.90
2023-05-03T20:38:15.956Z,74.60
2023-05-03T20:40:42.604Z,75.10
2023-05-03T20:43:12.088Z,75.60
2023-05-03T20:45:38.799Z,76.60
2023-05-03T20:48:05.796Z,77.20
2023-05-03T20:50:32.461Z,79.20
2023-05-03T20:52:59.608Z,80.30
2023-05-03T20:55:26.333Z,80.10
2023-05-03T20:57:53.073Z,81.40
2023-05-03T21:00:21.919Z,81.80
2023-05-03T21:02:53.651Z,82.10
2023-05-03T21:05:21.671Z,82.70
2023-05-03T21:07:48.881Z,83.50
2023-05-03T21:10:18.666Z,84.10
2023-05-03T21:12:45.536Z,84.80
2023-05-03T21:15:12.255Z,86.40
2023-05-03T21:17:39.071Z,87.20
2023-05-03T21:20:06.712Z,87.30
2023-05-03T21:22:33.512Z,87.60
2023-05-03T21:25:00.228Z,88.20
2023-05-03T21:27:26.887Z,88.00
2023-05-03T21:29:53.572Z,89.40
2023-05-03T21:32:20.294Z,89.80
2023-05-03T21:34:47.046Z,90.00
2023-05-03T21:37:13.765Z,89.90
2023-05-03T21:39:40.409Z,90.40
2023-05-03T21:42:07.170Z,90.60
2023-05-03T21:44:33.885Z,91.10
2023-05-03T21:47:00.816Z,91.30
2023-05-03T21:49:27.654Z,91.40
2023-05-03T21:51:54.323Z,91.40
2023-05-03T21:54:21.037Z,91.90
2023-05-03T21:56:48.026Z,91.90
2023-05-03T21:59:15.228Z,92.40
2023-05-03T22:01:42.995Z,92.70
2023-05-03T22:04:09.660Z,93.30
2023-05-03T22:06:36.855Z,93.70
2023-05-03T22:09:03.832Z,94.20
2023-05-03T22:11:30.597Z,95.30
2023-05-03T22:14:07.309Z,95.90
2023-05-03T22:16:39.058Z,95.50
2023-05-03T22:19:05.824Z,95.80
2023-05-03T22:21:35.109Z,96.40
2023-05-03T22:24:01.970Z,97.60
2023-05-03T22:26:29.611Z,97.00
2023-05-03T22:28:56.459Z,96.80
2023-05-03T22:31:23.424Z,97.00
2023-05-03T22:33:50.103Z,97.00
2023-05-03T22:36:16.824Z,97.20
2023-05-03T22:38:43.748Z,97.90
2023-05-03T22:41:11.062Z,97.90
2023-05-03T22:43:37.779Z,97.70
2023-05-03T22:46:04.708Z,98.20
2023-05-03T22:48:32.580Z,98.60
2023-05-03T22:50:59.749Z,99.20
2023-05-03T22:53:26.725Z,98.80
2023-05-03T22:55:57.061Z,98.80
2023-05-03T22:58:24.513Z,98.90
2023-05-03T23:00:52.661Z,99.00
2023-05-03T23:03:20.054Z,98.90
2023-05-03T23:05:48.070Z,99.30
2023-05-03T23:08:15.499Z,99.50
2023-05-03T23:10:42.457Z,99.50
2023-05-03T23:13:09.526Z,99.90
2023-05-03T23:15:36.924Z,99.90
2023-05-03T23:18:04.037Z,99.90
2023-05-03T23:20:30.759Z,99.90
2023-05-03T23:22:57.444Z,99.90
2023-05-03T23:25:24.074Z,99.90
2023-05-03T23:27:50.878Z,99.90
2023-05-03T23:30:18.104Z,99.90
2023-05-03T23:32:46.523Z,99.90
2023-05-03T23:35:14.967Z,99.90
2023-05-03T23:37:41.692Z,99.90
2023-05-03T23:40:08.821Z,99.90
2023-05-03T23:42:35.537Z,99.90
2023-05-03T23:45:02.271Z,99.90
2023-05-03T23:47:29.041Z,99.90
2023-05-03T23:49:55.761Z,99.90
2023-05-03T23:52:22.421Z,99.90
2023-05-03T23:54:49.154Z,99.90
2023-05-03T23:57:16.537Z,99.90
2023-05-03T23:59:43.235Z,99.90
